sensor_id;sensor_type;location;lat;lon;timestamp;pressure;altitude;pressure_sealevel;temperature;humidity
11347;BME280;5728;42.722;23.258;2023-05-07T00:00:40;94982.88;;;10.37;94.06
11347;BME280;5728;42.722;23.258;2023-05-07T00:03:07;94980.00;;;10.61;92.59
11347;BME280;5728;42.722;23.258;2023-05-07T00:05:34;94983.38;;;10.69;92.01
11347;BME280;5728;42.722;23.258;2023-05-07T00:08:01;94981.69;;;10.65;91.37
11347;BME280;5728;42.722;23.258;2023-05-07T00:10:27;94983.19;;;10.84;90.87
11347;BME280;5728;42.722;23.258;2023-05-07T00:12:54;94975.28;;;10.92;90.29
11347;BME280;5728;42.722;23.258;2023-05-07T00:15:20;94977.13;;;10.82;90.85
11347;BME280;5728;42.722;23.258;2023-05-07T00:17:48;94977.59;;;10.45;92.56
11347;BME280;5728;42.722;23.258;2023-05-07T00:20:15;94977.03;;;10.20;94.06
11347;BME280;5728;42.722;23.258;2023-05-07T00:22:41;94975.44;;;10.07;94.81
11347;BME280;5728;42.722;23.258;2023-05-07T00:25:08;94978.34;;;9.71;96.23
11347;BME280;5728;42.722;23.258;2023-05-07T00:27:35;94972.91;;;9.98;96.33
11347;BME280;5728;42.722;23.258;2023-05-07T00:30:01;94979.16;;;9.79;95.53
11347;BME280;5728;42.722;23.258;2023-05-07T00:32:28;94972.09;;;9.93;96.20
11347;BME280;5728;42.722;23.258;2023-05-07T00:34:56;94975.25;;;10.25;95.23
11347;BME280;5728;42.722;23.258;2023-05-07T00:37:22;94975.31;;;10.20;94.28
11347;BME280;5728;42.722;23.258;2023-05-07T00:39:48;94976.84;;;10.35;94.08
11347;BME280;5728;42.722;23.258;2023-05-07T00:42:15;94976.53;;;10.62;93.00
11347;BME280;5728;42.722;23.258;2023-05-07T00:44:41;94980.88;;;10.62;92.60
11347;BME280;5728;42.722;23.258;2023-05-07T00:47:08;94985.00;;;10.76;91.38
11347;BME280;5728;42.722;23.258;2023-05-07T00:49:35;94979.72;;;10.82;91.03
11347;BME280;5728;42.722;23.258;2023-05-07T00:52:05;94979.78;;;10.78;90.95
11347;BME280;5728;42.722;23.258;2023-05-07T00:54:31;94977.91;;;10.90;90.51
11347;BME280;5728;42.722;23.258;2023-05-07T00:56:58;94985.53;;;10.33;91.61
11347;BME280;5728;42.722;23.258;2023-05-07T00:59:25;94985.66;;;10.22;92.99
11347;BME280;5728;42.722;23.258;2023-05-07T01:01:52;94988.69;;;9.72;96.36
11347;BME280;5728;42.722;23.258;2023-05-07T01:04:18;94986.25;;;9.55;97.50
11347;BME280;5728;42.722;23.258;2023-05-07T01:06:44;94981.19;;;9.43;98.77
11347;BME280;5728;42.722;23.258;2023-05-07T01:09:13;94977.78;;;9.35;98.81
11347;BME280;5728;42.722;23.258;2023-05-07T01:11:40;94983.63;;;9.61;97.53
11347;BME280;5728;42.722;23.258;2023-05-07T01:14:07;94982.09;;;9.36;98.57
11347;BME280;5728;42.722;23.258;2023-05-07T01:16:35;94983.00;;;9.29;99.18
11347;BME280;5728;42.722;23.258;2023-05-07T01:19:01;94982.00;;;9.47;99.16
11347;BME280;5728;42.722;23.258;2023-05-07T01:21:27;94987.75;;;9.81;96.49
11347;BME280;5728;42.722;23.258;2023-05-07T01:24:00;94983.44;;;9.80;96.47
11347;BME280;5728;42.722;23.258;2023-05-07T01:26:27;94979.13;;;9.82;96.46
11347;BME280;5728;42.722;23.258;2023-05-07T01:28:53;94982.53;;;9.87;96.49
11347;BME280;5728;42.722;23.258;2023-05-07T01:31:20;94979.28;;;9.67;97.15
11347;BME280;5728;42.722;23.258;2023-05-07T01:33:46;94985.41;;;9.52;97.39
11347;BME280;5728;42.722;23.258;2023-05-07T01:36:14;94976.03;;;9.37;98.67
11347;BME280;5728;42.722;23.258;2023-05-07T01:38:42;94982.69;;;9.67;97.92
11347;BME280;5728;42.722;23.258;2023-05-07T01:41:10;94967.00;;;9.87;96.62
11347;BME280;5728;42.722;23.258;2023-05-07T01:43:37;94977.22;;;9.99;94.72
11347;BME280;5728;42.722;23.258;2023-05-07T01:46:04;94968.84;;;9.73;95.33
11347;BME280;5728;42.722;23.258;2023-05-07T01:48:30;94971.38;;;9.82;95.80
11347;BME280;5728;42.722;23.258;2023-05-07T01:50:58;94978.16;;;9.90;94.58
11347;BME280;5728;42.722;23.258;2023-05-07T01:53:26;94968.78;;;9.80;94.59
11347;BME280;5728;42.722;23.258;2023-05-07T01:55:53;94974.25;;;9.48;95.60
11347;BME280;5728;42.722;23.258;2023-05-07T01:58:21;94971.47;;;9.68;96.42
11347;BME280;5728;42.722;23.258;2023-05-07T02:00:47;94966.13;;;9.85;96.05
11347;BME280;5728;42.722;23.258;2023-05-07T02:03:13;94968.53;;;10.06;95.54
11347;BME280;5728;42.722;23.258;2023-05-07T02:05:40;94964.16;;;10.11;94.06
11347;BME280;5728;42.722;23.258;2023-05-07T02:08:06;94955.84;;;9.77;95.91
11347;BME280;5728;42.722;23.258;2023-05-07T02:10:33;94945.50;;;9.79;96.23
11347;BME280;5728;42.722;23.258;2023-05-07T02:13:01;94941.06;;;9.91;95.96
11347;BME280;5728;42.722;23.258;2023-05-07T02:15:29;94953.81;;;10.09;94.79
11347;BME280;5728;42.722;23.258;2023-05-07T02:17:58;94946.97;;;10.04;94.89
11347;BME280;5728;42.722;23.258;2023-05-07T02:20:25;94949.56;;;10.01;94.87
11347;BME280;5728;42.722;23.258;2023-05-07T02:22:52;94947.19;;;9.80;96.14
11347;BME280;5728;42.722;23.258;2023-05-07T02:25:18;94950.66;;;9.79;96.18
11347;BME280;5728;42.722;23.258;2023-05-07T02:27:45;94951.56;;;9.76;96.35
11347;BME280;5728;42.722;23.258;2023-05-07T02:30:11;94958.81;;;9.36;96.41
11347;BME280;5728;42.722;23.258;2023-05-07T02:32:39;94950.16;;;9.37;98.49
11347;BME280;5728;42.722;23.258;2023-05-07T02:35:06;94951.81;;;9.47;98.15
11347;BME280;5728;42.722;23.258;2023-05-07T02:37:33;94948.41;;;9.39;98.11
11347;BME280;5728;42.722;23.258;2023-05-07T02:40:00;94949.41;;;9.25;98.51
11347;BME280;5728;42.722;23.258;2023-05-07T02:42:29;94955.44;;;9.25;99.00
11347;BME280;5728;42.722;23.258;2023-05-07T02:44:56;94952.03;;;9.17;99.42
11347;BME280;5728;42.722;23.258;2023-05-07T02:47:22;94961.41;;;9.35;99.92
11347;BME280;5728;42.722;23.258;2023-05-07T02:49:50;94953.56;;;9.45;98.43
11347;BME280;5728;42.722;23.258;2023-05-07T02:52:16;94951.13;;;9.26;99.32
11347;BME280;5728;42.722;23.258;2023-05-07T02:54:43;94955.63;;;8.98;99.81
11347;BME280;5728;42.722;23.258;2023-05-07T02:57:09;94950.34;;;9.16;100.00
11347;BME280;5728;42.722;23.258;2023-05-07T02:59:36;94964.09;;;9.23;100.00
11347;BME280;5728;42.722;23.258;2023-05-07T03:02:02;94956.34;;;9.21;99.48
11347;BME280;5728;42.722;23.258;2023-05-07T03:04:29;94956.22;;;9.36;99.66
11347;BME280;5728;42.722;23.258;2023-05-07T03:06:56;94960.59;;;9.28;97.54
11347;BME280;5728;42.722;23.258;2023-05-07T03:09:23;94976.97;;;9.27;98.94
11347;BME280;5728;42.722;23.258;2023-05-07T03:11:49;94970.22;;;9.08;99.05
11347;BME280;5728;42.722;23.258;2023-05-07T03:14:16;94969.97;;;9.40;98.25
11347;BME280;5728;42.722;23.258;2023-05-07T03:16:42;94969.34;;;9.09;98.19
11347;BME280;5728;42.722;23.258;2023-05-07T03:19:09;94980.50;;;9.19;98.49
11347;BME280;5728;42.722;23.258;2023-05-07T03:21:35;94982.22;;;9.20;98.84
11347;BME280;5728;42.722;23.258;2023-05-07T03:24:03;94984.91;;;9.03;98.55
11347;BME280;5728;42.722;23.258;2023-05-07T03:26:30;94978.06;;;8.96;99.85
11347;BME280;5728;42.722;23.258;2023-05-07T03:28:56;94981.53;;;8.92;100.00
11347;BME280;5728;42.722;23.258;2023-05-07T03:31:23;94983.91;;;9.22;99.33
11347;BME280;5728;42.722;23.258;2023-05-07T03:33:50;94981.22;;;9.34;98.33
11347;BME280;5728;42.722;23.258;2023-05-07T03:36:17;94981.31;;;9.22;98.17
11347;BME280;5728;42.722;23.258;2023-05-07T03:38:43;94982.16;;;9.27;98.67
11347;BME280;5728;42.722;23.258;2023-05-07T03:41:11;94994.41;;;8.99;99.32
11347;BME280;5728;42.722;23.258;2023-05-07T03:43:37;94987.56;;;8.92;100.00
11347;BME280;5728;42.722;23.258;2023-05-07T03:46:04;94994.50;;;8.83;100.00
11347;BME280;5728;42.722;23.258;2023-05-07T03:48:30;94996.31;;;8.67;100.00
11347;BME280;5728;42.722;23.258;2023-05-07T03:50:57;94995.34;;;8.88;100.00
11347;BME280;5728;42.722;23.258;2023-05-07T03:53:24;94998.69;;;9.08;100.00
11347;BME280;5728;42.722;23.258;2023-05-07T03:55:50;94998.53;;;9.29;100.00
11347;BME280;5728;42.722;23.258;2023-05-07T03:58:18;94997.56;;;9.45;100.00
11347;BME280;5728;42.722;23.258;2023-05-07T04:00:45;95002.75;;;9.42;99.86
11347;BME280;5728;42.722;23.258;2023-05-07T04:03:11;95005.41;;;9.36;100.00
11347;BME280;5728;42.722;23.258;2023-05-07T04:05:38;95007.03;;;9.48;100.00
11347;BME280;5728;42.722;23.258;2023-05-07T04:08:05;95022.56;;;9.46;100.00
11347;BME280;5728;42.722;23.258;2023-05-07T04:10:31;95022.69;;;9.31;100.00
11347;BME280;5728;42.722;23.258;2023-05-07T04:12:58;95020.53;;;9.85;100.00
11347;BME280;5728;42.722;23.258;2023-05-07T04:15:26;95024.47;;;10.25;98.86
11347;BME280;5728;42.722;23.258;2023-05-07T04:17:53;95031.13;;;10.50;97.51
11347;BME280;5728;42.722;23.258;2023-05-07T04:20:19;95030.00;;;10.72;95.80
11347;BME280;5728;42.722;23.258;2023-05-07T04:22:46;95027.94;;;10.99;94.57
11347;BME280;5728;42.722;23.258;2023-05-07T04:25:13;95037.63;;;10.86;92.35
11347;BME280;5728;42.722;23.258;2023-05-07T04:27:40;95039.28;;;10.14;95.52
11347;BME280;5728;42.722;23.258;2023-05-07T04:30:07;95048.22;;;10.68;94.43
11347;BME280;5728;42.722;23.258;2023-05-07T04:32:35;95046.56;;;10.61;94.43
11347;BME280;5728;42.722;23.258;2023-05-07T04:35:03;95050.38;;;11.03;93.61
11347;BME280;5728;42.722;23.258;2023-05-07T04:37:31;95049.38;;;11.13;91.96
11347;BME280;5728;42.722;23.258;2023-05-07T04:39:58;95051.41;;;10.91;91.65
11347;BME280;5728;42.722;23.258;2023-05-07T04:42:25;95055.63;;;10.98;91.78
11347;BME280;5728;42.722;23.258;2023-05-07T04:44:52;95057.22;;;11.10;92.01
11347;BME280;5728;42.722;23.258;2023-05-07T04:47:20;95047.38;;;11.33;91.67
11347;BME280;5728;42.722;23.258;2023-05-07T04:49:48;95054.59;;;11.74;90.12
11347;BME280;5728;42.722;23.258;2023-05-07T04:52:14;95052.13;;;11.63;89.21
11347;BME280;5728;42.722;23.258;2023-05-07T04:54:42;95056.63;;;12.10;87.33
11347;BME280;5728;42.722;23.258;2023-05-07T04:57:08;95047.75;;;12.22;86.81
11347;BME280;5728;42.722;23.258;2023-05-07T04:59:35;95047.78;;;12.20;85.95
11347;BME280;5728;42.722;23.258;2023-05-07T05:02:02;95044.88;;;12.37;86.27
11347;BME280;5728;42.722;23.258;2023-05-07T05:04:30;95041.53;;;12.76;85.40
11347;BME280;5728;42.722;23.258;2023-05-07T05:06:58;95045.88;;;13.20;82.97
11347;BME280;5728;42.722;23.258;2023-05-07T05:09:25;95049.06;;;13.32;82.45
11347;BME280;5728;42.722;23.258;2023-05-07T05:11:51;95049.94;;;13.71;81.08
11347;BME280;5728;42.722;23.258;2023-05-07T05:14:18;95045.59;;;13.72;80.87
11347;BME280;5728;42.722;23.258;2023-05-07T05:16:45;95048.69;;;13.11;82.75
11347;BME280;5728;42.722;23.258;2023-05-07T05:19:11;95040.50;;;13.27;82.04
11347;BME280;5728;42.722;23.258;2023-05-07T05:21:38;95039.25;;;13.02;84.02
11347;BME280;5728;42.722;23.258;2023-05-07T05:24:06;95045.59;;;13.32;82.67
11347;BME280;5728;42.722;23.258;2023-05-07T05:26:33;95038.44;;;13.80;80.29
11347;BME280;5728;42.722;23.258;2023-05-07T05:29:00;95043.78;;;14.11;79.63
11347;BME280;5728;42.722;23.258;2023-05-07T05:31:27;95046.91;;;14.58;78.83
11347;BME280;5728;42.722;23.258;2023-05-07T05:33:53;95046.91;;;14.91;77.42
11347;BME280;5728;42.722;23.258;2023-05-07T05:36:20;95039.34;;;15.12;76.71
11347;BME280;5728;42.722;23.258;2023-05-07T05:38:47;95048.03;;;15.71;74.20
11347;BME280;5728;42.722;23.258;2023-05-07T05:41:15;95053.63;;;15.59;73.69
11347;BME280;5728;42.722;23.258;2023-05-07T05:43:41;95044.53;;;15.98;72.84
11347;BME280;5728;42.722;23.258;2023-05-07T05:46:08;95046.03;;;16.33;71.67
11347;BME280;5728;42.722;23.258;2023-05-07T05:48:36;95041.38;;;16.41;71.53
11347;BME280;5728;42.722;23.258;2023-05-07T05:51:03;95042.69;;;16.56;70.35
11347;BME280;5728;42.722;23.258;2023-05-07T05:53:30;95053.84;;;16.86;69.83
11347;BME280;5728;42.722;23.258;2023-05-07T05:55:56;95048.13;;;16.99;69.87
11347;BME280;5728;42.722;23.258;2023-05-07T05:58:25;95054.13;;;17.03;68.97
11347;BME280;5728;42.722;23.258;2023-05-07T06:00:51;95050.56;;;17.29;68.05
11347;BME280;5728;42.722;23.258;2023-05-07T06:03:18;95043.56;;;17.52;67.88
11347;BME280;5728;42.722;23.258;2023-05-07T06:05:45;95043.13;;;16.93;68.67
11347;BME280;5728;42.722;23.258;2023-05-07T06:08:11;95042.91;;;17.22;68.97
11347;BME280;5728;42.722;23.258;2023-05-07T06:10:38;95044.81;;;17.19;68.52
11347;BME280;5728;42.722;23.258;2023-05-07T06:13:05;95047.56;;;17.14;68.79
11347;BME280;5728;42.722;23.258;2023-05-07T06:15:34;95044.16;;;17.36;67.95
11347;BME280;5728;42.722;23.258;2023-05-07T06:18:00;95049.31;;;17.39;67.18
11347;BME280;5728;42.722;23.258;2023-05-07T06:20:27;95049.41;;;17.36;68.14
11347;BME280;5728;42.722;23.258;2023-05-07T06:22:54;95044.97;;;17.38;68.11
11347;BME280;5728;42.722;23.258;2023-05-07T06:25:21;95038.84;;;17.62;67.52
11347;BME280;5728;42.722;23.258;2023-05-07T06:27:47;95038.41;;;17.72;67.06
11347;BME280;5728;42.722;23.258;2023-05-07T06:30:14;95034.59;;;18.03;65.47
11347;BME280;5728;42.722;23.258;2023-05-07T06:32:42;95039.72;;;18.27;65.19
11347;BME280;5728;42.722;23.258;2023-05-07T06:35:09;95032.00;;;18.44;64.64
11347;BME280;5728;42.722;23.258;2023-05-07T06:37:36;95024.03;;;18.04;64.64
11347;BME280;5728;42.722;23.258;2023-05-07T06:40:05;95024.94;;;18.67;63.17
11347;BME280;5728;42.722;23.258;2023-05-07T06:42:32;95025.41;;;18.96;62.75
11347;BME280;5728;42.722;23.258;2023-05-07T06:44:59;95025.81;;;18.87;62.90
11347;BME280;5728;42.722;23.258;2023-05-07T06:47:25;95026.47;;;18.52;65.12
11347;BME280;5728;42.722;23.258;2023-05-07T06:49:53;95017.06;;;18.87;64.21
11347;BME280;5728;42.722;23.258;2023-05-07T06:52:20;95025.63;;;19.31;62.72
11347;BME280;5728;42.722;23.258;2023-05-07T06:54:48;95008.44;;;18.83;63.01
11347;BME280;5728;42.722;23.258;2023-05-07T06:57:14;95014.88;;;18.96;63.38
11347;BME280;5728;42.722;23.258;2023-05-07T06:59:41;95017.22;;;19.23;62.41
11347;BME280;5728;42.722;23.258;2023-05-07T07:02:07;95020.56;;;19.65;59.50
11347;BME280;5728;42.722;23.258;2023-05-07T07:04:34;95028.19;;;19.32;60.06
11347;BME280;5728;42.722;23.258;2023-05-07T07:07:02;95020.06;;;19.18;61.40
11347;BME280;5728;42.722;23.258;2023-05-07T07:09:29;95018.00;;;19.63;59.37
11347;BME280;5728;42.722;23.258;2023-05-07T07:11:56;95009.25;;;19.63;60.94
11347;BME280;5728;42.722;23.258;2023-05-07T07:14:23;95014.28;;;19.67;59.50
11347;BME280;5728;42.722;23.258;2023-05-07T07:16:49;95008.22;;;20.03;58.80
11347;BME280;5728;42.722;23.258;2023-05-07T07:19:16;95008.25;;;20.39;58.69
11347;BME280;5728;42.722;23.258;2023-05-07T07:21:43;95000.44;;;20.18;56.82
11347;BME280;5728;42.722;23.258;2023-05-07T07:24:13;94999.09;;;19.55;59.09
11347;BME280;5728;42.722;23.258;2023-05-07T07:26:44;95001.47;;;19.41;59.51
11347;BME280;5728;42.722;23.258;2023-05-07T07:29:11;95005.13;;;19.57;59.13
11347;BME280;5728;42.722;23.258;2023-05-07T07:31:38;95002.28;;;19.62;59.26
11347;BME280;5728;42.722;23.258;2023-05-07T07:34:04;94998.44;;;19.50;59.79
11347;BME280;5728;42.722;23.258;2023-05-07T07:36:31;95007.56;;;19.43;59.57
11347;BME280;5728;42.722;23.258;2023-05-07T07:38:58;95008.72;;;20.11;57.58
11347;BME280;5728;42.722;23.258;2023-05-07T07:41:27;95013.41;;;20.40;55.84
11347;BME280;5728;42.722;23.258;2023-05-07T07:43:53;95015.63;;;20.83;54.95
11347;BME280;5728;42.722;23.258;2023-05-07T07:46:20;95015.22;;;21.08;54.71
11347;BME280;5728;42.722;23.258;2023-05-07T07:48:47;95018.31;;;21.16;54.01
11347;BME280;5728;42.722;23.258;2023-05-07T07:51:14;95010.66;;;21.44;54.10
11347;BME280;5728;42.722;23.258;2023-05-07T07:53:40;95018.06;;;21.04;52.95
11347;BME280;5728;42.722;23.258;2023-05-07T07:56:07;95014.34;;;21.73;55.59
11347;BME280;5728;42.722;23.258;2023-05-07T07:58:35;95012.13;;;21.81;52.60
11347;BME280;5728;42.722;23.258;2023-05-07T08:01:03;95007.59;;;21.68;50.73
11347;BME280;5728;42.722;23.258;2023-05-07T08:03:30;95010.16;;;21.21;52.96
11347;BME280;5728;42.722;23.258;2023-05-07T08:05:58;95004.06;;;21.36;52.44
11347;BME280;5728;42.722;23.258;2023-05-07T08:08:25;95009.22;;;21.54;53.00
11347;BME280;5728;42.722;23.258;2023-05-07T08:10:52;95008.41;;;21.85;52.96
11347;BME280;5728;42.722;23.258;2023-05-07T08:13:19;95005.00;;;22.14;51.21
11347;BME280;5728;42.722;23.258;2023-05-07T08:15:47;95006.97;;;22.27;51.95
11347;BME280;5728;42.722;23.258;2023-05-07T08:18:14;95002.88;;;22.51;50.25
11347;BME280;5728;42.722;23.258;2023-05-07T08:20:41;95004.91;;;22.61;49.72
11347;BME280;5728;42.722;23.258;2023-05-07T08:23:08;94996.88;;;22.78;48.90
11347;BME280;5728;42.722;23.258;2023-05-07T08:25:35;95021.78;;;23.04;48.46
11347;BME280;5728;42.722;23.258;2023-05-07T08:28:03;94993.31;;;23.66;47.33
11347;BME280;5728;42.722;23.258;2023-05-07T08:30:30;94985.53;;;23.77;45.02
11347;BME280;5728;42.722;23.258;2023-05-07T08:32:58;94993.03;;;23.56;44.89
11347;BME280;5728;42.722;23.258;2023-05-07T08:35:25;94994.63;;;23.44;45.19
11347;BME280;5728;42.722;23.258;2023-05-07T08:37:52;94993.00;;;22.70;46.27
11347;BME280;5728;42.722;23.258;2023-05-07T08:40:19;94988.47;;;21.80;48.67
11347;BME280;5728;42.722;23.258;2023-05-07T08:42:49;94987.63;;;22.56;47.36
11347;BME280;5728;42.722;23.258;2023-05-07T08:45:17;94989.19;;;23.04;45.79
11347;BME280;5728;42.722;23.258;2023-05-07T08:47:47;94976.28;;;23.84;44.32
11347;BME280;5728;42.722;23.258;2023-05-07T08:50:17;94983.81;;;24.31;43.72
11347;BME280;5728;42.722;23.258;2023-05-07T08:52:44;94977.97;;;23.57;43.17
11347;BME280;5728;42.722;23.258;2023-05-07T08:55:12;94983.84;;;23.33;45.95
11347;BME280;5728;42.722;23.258;2023-05-07T08:57:40;94973.66;;;23.56;44.94
11347;BME280;5728;42.722;23.258;2023-05-07T09:00:08;94965.44;;;23.46;44.36
11347;BME280;5728;42.722;23.258;2023-05-07T09:02:35;94968.94;;;24.01;43.98
11347;BME280;5728;42.722;23.258;2023-05-07T09:05:02;94965.84;;;24.09;43.88
11347;BME280;5728;42.722;23.258;2023-05-07T09:07:31;94968.88;;;24.69;41.63
11347;BME280;5728;42.722;23.258;2023-05-07T09:09:57;94973.72;;;24.62;41.34
11347;BME280;5728;42.722;23.258;2023-05-07T09:12:24;94960.69;;;25.24;40.61
11347;BME280;5728;42.722;23.258;2023-05-07T09:14:51;94953.16;;;25.56;39.38
11347;BME280;5728;42.722;23.258;2023-05-07T09:17:18;94958.56;;;25.04;39.69
11347;BME280;5728;42.722;23.258;2023-05-07T09:19:45;94946.50;;;25.50;40.24
11347;BME280;5728;42.722;23.258;2023-05-07T09:22:13;94950.28;;;25.21;38.44
11347;BME280;5728;42.722;23.258;2023-05-07T09:24:47;94956.03;;;25.65;39.44
11347;BME280;5728;42.722;23.258;2023-05-07T09:27:14;94952.63;;;26.36;36.44
11347;BME280;5728;42.722;23.258;2023-05-07T09:29:41;94952.28;;;26.17;36.80
11347;BME280;5728;42.722;23.258;2023-05-07T09:32:10;94945.19;;;25.30;39.00
11347;BME280;5728;42.722;23.258;2023-05-07T09:34:38;94947.00;;;24.65;38.30
11347;BME280;5728;42.722;23.258;2023-05-07T09:37:07;94943.38;;;25.18;36.78
11347;BME280;5728;42.722;23.258;2023-05-07T09:39:42;94944.53;;;26.14;35.08
11347;BME280;5728;42.722;23.258;2023-05-07T09:42:10;94939.03;;;25.68;35.10
11347;BME280;5728;42.722;23.258;2023-05-07T09:44:38;94936.22;;;26.42;35.42
11347;BME280;5728;42.722;23.258;2023-05-07T09:47:06;94927.50;;;26.98;36.00
11347;BME280;5728;42.722;23.258;2023-05-07T09:49:33;94925.72;;;27.21;33.84
11347;BME280;5728;42.722;23.258;2023-05-07T09:52:01;94927.78;;;27.29;33.35
11347;BME280;5728;42.722;23.258;2023-05-07T09:54:28;94920.00;;;27.37;32.50
11347;BME280;5728;42.722;23.258;2023-05-07T09:56:57;94926.59;;;27.55;32.48
11347;BME280;5728;42.722;23.258;2023-05-07T09:59:24;94924.16;;;27.96;31.63
11347;BME280;5728;42.722;23.258;2023-05-07T10:01:52;94919.81;;;27.62;33.61
11347;BME280;5728;42.722;23.258;2023-05-07T10:04:21;94916.41;;;27.38;31.78
11347;BME280;5728;42.722;23.258;2023-05-07T10:06:48;94917.72;;;26.75;32.19
11347;BME280;5728;42.722;23.258;2023-05-07T10:09:16;94928.25;;;25.82;33.22
11347;BME280;5728;42.722;23.258;2023-05-07T10:11:43;94921.09;;;25.46;33.60
11347;BME280;5728;42.722;23.258;2023-05-07T10:14:12;94914.16;;;25.44;33.84
11347;BME280;5728;42.722;23.258;2023-05-07T10:16:41;94917.72;;;24.42;34.54
11347;BME280;5728;42.722;23.258;2023-05-07T10:19:09;94909.91;;;25.41;35.32
11347;BME280;5728;42.722;23.258;2023-05-07T10:21:37;94913.47;;;26.14;32.26
11347;BME280;5728;42.722;23.258;2023-05-07T10:24:05;94899.13;;;26.86;32.48
11347;BME280;5728;42.722;23.258;2023-05-07T10:26:40;94903.47;;;27.55;29.14
11347;BME280;5728;42.722;23.258;2023-05-07T10:29:14;94904.81;;;27.61;28.37
11347;BME280;5728;42.722;23.258;2023-05-07T10:31:53;94896.09;;;27.59;29.40
11347;BME280;5728;42.722;23.258;2023-05-07T10:34:24;94883.06;;;26.99;27.88
11347;BME280;5728;42.722;23.258;2023-05-07T10:36:53;94879.59;;;27.32;30.74
11347;BME280;5728;42.722;23.258;2023-05-07T10:39:21;94880.22;;;27.68;27.54
11347;BME280;5728;42.722;23.258;2023-05-07T10:41:49;94878.31;;;28.13;25.87
11347;BME280;5728;42.722;23.258;2023-05-07T10:44:27;94878.88;;;27.63;27.17
11347;BME280;5728;42.722;23.258;2023-05-07T10:47:05;94881.53;;;27.52;28.58
11347;BME280;5728;42.722;23.258;2023-05-07T10:49:35;94882.59;;;27.82;26.18
11347;BME280;5728;42.722;23.258;2023-05-07T10:52:12;94881.56;;;26.73;33.17
11347;BME280;5728;42.722;23.258;2023-05-07T10:54:40;94879.69;;;27.97;28.45
11347;BME280;5728;42.722;23.258;2023-05-07T10:57:35;94865.53;;;28.60;29.37
11347;BME280;5728;42.722;23.258;2023-05-07T11:00:42;94869.97;;;29.32;27.73
11347;BME280;5728;42.722;23.258;2023-05-07T11:03:09;94881.34;;;29.64;26.09
11347;BME280;5728;42.722;23.258;2023-05-07T11:05:37;94877.25;;;29.60;25.31
11347;BME280;5728;42.722;23.258;2023-05-07T11:08:04;94883.56;;;29.99;25.79
11347;BME280;5728;42.722;23.258;2023-05-07T11:10:50;94874.59;;;30.29;24.94
11347;BME280;5728;42.722;23.258;2023-05-07T11:13:18;94876.59;;;29.17;25.95
11347;BME280;5728;42.722;23.258;2023-05-07T11:15:47;94883.59;;;29.69;25.44
11347;BME280;5728;42.722;23.258;2023-05-07T11:18:16;94877.97;;;30.02;25.71
11347;BME280;5728;42.722;23.258;2023-05-07T11:20:54;94866.22;;;30.53;25.29
11347;BME280;5728;42.722;23.258;2023-05-07T11:23:55;94853.53;;;30.74;25.13
11347;BME280;5728;42.722;23.258;2023-05-07T11:26:24;94859.66;;;31.13;26.36
11347;BME280;5728;42.722;23.258;2023-05-07T11:28:52;94865.19;;;30.15;24.71
11347;BME280;5728;42.722;23.258;2023-05-07T11:31:27;94857.34;;;29.44;25.06
11347;BME280;5728;42.722;23.258;2023-05-07T11:33:55;94858.84;;;28.33;25.99
11347;BME280;5728;42.722;23.258;2023-05-07T11:36:23;94860.59;;;27.58;27.09
11347;BME280;5728;42.722;23.258;2023-05-07T11:38:51;94857.09;;;27.47;27.54
11347;BME280;5728;42.722;23.258;2023-05-07T11:41:18;94849.94;;;27.03;27.42
11347;BME280;5728;42.722;23.258;2023-05-07T11:43:57;94846.22;;;28.35;27.05
11347;BME280;5728;42.722;23.258;2023-05-07T11:46:26;94854.03;;;28.80;26.01
11347;BME280;5728;42.722;23.258;2023-05-07T11:48:53;94846.56;;;28.10;26.08
11347;BME280;5728;42.722;23.258;2023-05-07T11:51:21;94835.69;;;27.91;26.03
11347;BME280;5728;42.722;23.258;2023-05-07T11:53:49;94846.97;;;26.73;27.52
11347;BME280;5728;42.722;23.258;2023-05-07T11:56:17;94834.19;;;26.89;28.32
11347;BME280;5728;42.722;23.258;2023-05-07T11:58:45;94831.41;;;28.11;26.90
11347;BME280;5728;42.722;23.258;2023-05-07T12:01:13;94837.75;;;29.34;25.30
11347;BME280;5728;42.722;23.258;2023-05-07T12:03:44;94838.97;;;30.00;24.97
11347;BME280;5728;42.722;23.258;2023-05-07T12:06:12;94831.94;;;30.08;24.92
11347;BME280;5728;42.722;23.258;2023-05-07T12:08:40;94833.94;;;30.45;23.69
11347;BME280;5728;42.722;23.258;2023-05-07T12:11:08;94841.25;;;30.23;24.08
11347;BME280;5728;42.722;23.258;2023-05-07T12:13:37;94831.25;;;30.73;23.27
11347;BME280;5728;42.722;23.258;2023-05-07T12:16:05;94832.75;;;31.05;23.25
11347;BME280;5728;42.722;23.258;2023-05-07T12:18:33;94825.44;;;28.71;24.37
11347;BME280;5728;42.722;23.258;2023-05-07T12:21:01;94821.84;;;27.97;25.35
11347;BME280;5728;42.722;23.258;2023-05-07T12:23:28;94817.03;;;27.91;25.70
11347;BME280;5728;42.722;23.258;2023-05-07T12:25:56;94809.75;;;28.04;25.46
11347;BME280;5728;42.722;23.258;2023-05-07T12:28:23;94812.47;;;28.45;25.40
11347;BME280;5728;42.722;23.258;2023-05-07T12:30:51;94813.34;;;29.18;26.01
11347;BME280;5728;42.722;23.258;2023-05-07T12:33:23;94809.22;;;29.34;24.22
11347;BME280;5728;42.722;23.258;2023-05-07T12:35:53;94809.75;;;29.68;23.64
11347;BME280;5728;42.722;23.258;2023-05-07T12:38:22;94804.03;;;29.92;23.59
11347;BME280;5728;42.722;23.258;2023-05-07T12:40:50;94801.31;;;28.72;24.76
11347;BME280;5728;42.722;23.258;2023-05-07T12:43:18;94790.13;;;29.18;25.75
11347;BME280;5728;42.722;23.258;2023-05-07T12:45:46;94794.06;;;29.44;24.58
11347;BME280;5728;42.722;23.258;2023-05-07T12:48:13;94794.88;;;29.35;25.71
11347;BME280;5728;42.722;23.258;2023-05-07T12:50:40;94779.13;;;29.82;24.46
11347;BME280;5728;42.722;23.258;2023-05-07T12:53:08;94777.09;;;29.64;25.12
11347;BME280;5728;42.722;23.258;2023-05-07T12:55:45;94777.41;;;29.31;24.27
11347;BME280;5728;42.722;23.258;2023-05-07T12:58:16;94776.19;;;30.23;24.41
11347;BME280;5728;42.722;23.258;2023-05-07T13:00:44;94767.13;;;30.72;23.25
11347;BME280;5728;42.722;23.258;2023-05-07T13:03:11;94774.47;;;29.84;24.23
11347;BME280;5728;42.722;23.258;2023-05-07T13:05:38;94776.75;;;29.08;25.16